Abovyan, Armenia
Current Conditions -  °F | °C
As of 2:30 AM on Saturday 29 Nov 2014 (Local Time) from UDYZ Reporting Station
Broken Clouds Broken Clouds  
Wind Chill: 39°   Ceiling: 2000
Heat Index: 39°   Visibility: 6mi
Dew Point: 37°   Wind: 0mph
Humidity: 93%   Direction: NA
Pressure: 30.21"   Gusts: NA
Location:  40.27°N, 44.62°E
Report Text: UDYZ 282130Z 00000MPS 9999 BKN020 04/03 Q1023 R09/010070 NOSIG
Loading
Personal Weather Stations






























Interactive Weather Map New forecast layout! Learn more

10-Day Weather Forecast

Advertisements
Track Severe Weather on mobile